Darstellungsparameter: Aktuell verwendete Einstellungen:
Skalierung der Graphiken ... ?
xyx+y,   Skalierungsfaktor:      Skalierung: Modus: x, Faktor: 1
Darstellungszeitraum ... ?
Vom - - bis: - -   Zeitraum: 26.03.2010 - 01.04.2010
Min/Max/Avg-Anzeige ... ?
Zeige MMA aktuell
Zeige MMA Monat
Zeige MMA alles
Zeige --A aktuell
Zeige --A Monat
Zeige --A alles
Keine MMA-Anzeige
MMA:
Average (ber die Originaldaten)
MMA-Basis: 26.03.2010 - 01.04.2010
Quicknavigation für Darstellung... ?
Tage:      1T, 2T, 3T, 5T -1T -2T -3T -5T +1T +2T +3T +5T
Wochen: 1W, 2W, 3W -1W -2W -3W +1W +2W +3W
Monate: 1M, 3M, 6M -1M -3M -6M +1M +3M +6M
Jahre:    1J, 3J, 5J, 10J -1J -3J -5J -10J +1J +3J +5J +10J
Nutze für die Darstellung ... ?
Originaldaten oder Mittelwerte auf ...
Stundenbasis Tagesbasis Wochenbasis
Monatsbasis Jahresbasis      Datenbasis: Original-Daten
Darstellen als:
Statistik (Auto) Statistik J:M      Darstellung:
Zur Graphik,    zurück zur Übersicht aller Sensoren.
 
Tabellarische Datenbersicht: ?
 
Sensor: Nr:Datum:Temp:Abs-Feuchte:Windchill:Wind:
Aussen-T/F 1 26-03-2010 00:07:02 12.5 C 6.71 g/m*3 12.5 C 0 km/h
2 26-03-2010 00:19:02 12.4 C 6.66 g/m*3 12.4 C 0 km/h
3 26-03-2010 00:31:01 12.4 C 6.66 g/m*3 12.4 C 0 km/h
4 26-03-2010 00:43:01 12.2 C 6.58 g/m*3 12.2 C 0 km/h
5 26-03-2010 00:55:02 12.1 C 6.65 g/m*3 12.1 C 0 km/h
6 26-03-2010 01:07:01 12.3 C 6.62 g/m*3 12.3 C 0 km/h
7 26-03-2010 01:19:02 12.2 C 6.58 g/m*3 12.2 C 0 km/h
8 26-03-2010 01:31:01 12.5 C 6.6 g/m*3 12.5 C 0 km/h
9 26-03-2010 01:43:01 13 C 6.58 g/m*3 13 C 0 km/h
10 26-03-2010 01:55:02 13.8 C 6.55 g/m*3 13.8 C 0 km/h
11 26-03-2010 02:07:01 13.4 C 6.28 g/m*3 13.4 C 0 km/h
12 26-03-2010 02:19:01 12.7 C 6.46 g/m*3 12.7 C 0 km/h
13 26-03-2010 02:31:02 12.4 C 6.66 g/m*3 12.4 C 0 km/h
14 26-03-2010 02:43:02 12.1 C 6.76 g/m*3 12.1 C 0 km/h
15 26-03-2010 02:56:05 12 C 6.82 g/m*3 12 C 0 km/h
16 26-03-2010 03:08:06 11.6 C 6.76 g/m*3 11.6 C 0 km/h
17 26-03-2010 03:20:05 11.6 C 6.86 g/m*3 11.6 C 0 km/h
18 26-03-2010 03:32:03 11.8 C 6.95 g/m*3 11.8 C 0 km/h
19 26-03-2010 03:44:03 12 C 6.82 g/m*3 12 C 0 km/h
20 26-03-2010 03:56:03 12.1 C 6.86 g/m*3 12.1 C 0 km/h
21 26-03-2010 04:08:02 11.7 C 6.9 g/m*3 11.7 C 0 km/h
22 26-03-2010 04:20:02 11.2 C 6.79 g/m*3 11.2 C 0 km/h
23 26-03-2010 04:32:02 11.2 C 6.99 g/m*3 11.2 C 0 km/h
24 26-03-2010 04:44:02 11.1 C 6.95 g/m*3 11.1 C 0 km/h
25 26-03-2010 04:56:02 11.2 C 6.89 g/m*3 11.2 C 0 km/h
Sensor: Nr:Datum:Temp:Abs-Feuchte:Windchill:Wind:
Aussen-T/F 26 26-03-2010 05:08:02 11 C 6.81 g/m*3 11 C 0 km/h
27 26-03-2010 05:20:02 10.9 C 6.86 g/m*3 10.9 C 0 km/h
28 26-03-2010 05:32:01 10.7 C 6.88 g/m*3 10.7 C 0 km/h
29 26-03-2010 05:44:01 10.9 C 6.96 g/m*3 10.9 C 0 km/h
30 26-03-2010 05:56:02 11 C 7.01 g/m*3 11 C 0 km/h
31 26-03-2010 06:08:01 10.8 C 6.92 g/m*3 10.8 C 0 km/h
32 26-03-2010 06:20:02 10.5 C 6.98 g/m*3 10.5 C 0 km/h
33 26-03-2010 06:32:02 10.2 C 6.85 g/m*3 10.2 C 0 km/h
34 26-03-2010 06:44:02 10.2 C 6.95 g/m*3 10.2 C 0 km/h
35 26-03-2010 06:56:02 10.2 C 6.95 g/m*3 10.2 C 0 km/h
36 26-03-2010 07:08:02 10.3 C 6.99 g/m*3 10.3 C 0 km/h
37 26-03-2010 07:20:02 10.6 C 7.22 g/m*3 10.6 C 0 km/h
38 26-03-2010 07:32:02 10.7 C 7.17 g/m*3 10.7 C 0 km/h
39 26-03-2010 07:44:02 10.8 C 7.22 g/m*3 10.8 C 0 km/h
40 26-03-2010 07:56:02 11 C 7.11 g/m*3 11 C 0 km/h
41 26-03-2010 08:08:02 11.5 C 7.23 g/m*3 11.5 C 0 km/h
42 26-03-2010 08:20:01 11.5 C 7.13 g/m*3 11.5 C 0 km/h
43 26-03-2010 08:32:02 11.7 C 7.22 g/m*3 11.7 C 0 km/h
44 26-03-2010 08:44:02 12.3 C 7.28 g/m*3 12.3 C 0 km/h
45 26-03-2010 08:56:02 12.2 C 7.12 g/m*3 12.2 C 0 km/h
46 26-03-2010 09:08:02 12.4 C 7.21 g/m*3 12.4 C 0 km/h
47 26-03-2010 09:20:02 12.8 C 7.28 g/m*3 12.8 C 0 km/h
48 26-03-2010 09:32:02 13.2 C 7.23 g/m*3 13.2 C 0 km/h
49 26-03-2010 09:44:02 13.7 C 7.22 g/m*3 13.7 C 0 km/h
50 26-03-2010 09:56:02 13.8 C 7.03 g/m*3 13.8 C 0 km/h
Sensor: Nr:Datum:Temp:Abs-Feuchte:Windchill:Wind:
Aussen-T/F 51 26-03-2010 10:08:02 13.8 C 7.15 g/m*3 13.8 C 0 km/h
52 26-03-2010 10:20:02 13.8 C 7.03 g/m*3 13.8 C 0 km/h
53 26-03-2010 10:32:02 13.8 C 7.15 g/m*3 13.8 C 0 km/h
54 26-03-2010 10:44:02 13.6 C 6.83 g/m*3 13.6 C 0 km/h
55 26-03-2010 10:56:02 13.3 C 6.82 g/m*3 13.3 C 0 km/h
56 26-03-2010 11:08:02 12.5 C 6.6 g/m*3 12.5 C 0 km/h
57 26-03-2010 11:20:02 12.2 C 6.58 g/m*3 12.2 C 0 km/h
58 26-03-2010 11:32:02 11 C 7.01 g/m*3 11 C 0 km/h
59 26-03-2010 11:44:02 9.9 C 7.28 g/m*3 9.9 C 0 km/h
60 26-03-2010 11:56:01 9 C 6.96 g/m*3 9 C 0 km/h
61 26-03-2010 12:08:01 8.5 C 7.17 g/m*3 8.5 C 0 km/h
62 26-03-2010 12:20:01 8.2 C 7.2 g/m*3 8.2 C 0 km/h
63 26-03-2010 12:32:01 7.9 C 7.23 g/m*3 7.9 C 0 km/h
64 26-03-2010 12:44:01 7.5 C 6.96 g/m*3 7.5 C 0 km/h
65 26-03-2010 12:56:01 7.4 C 7 g/m*3 7.4 C 0 km/h
66 26-03-2010 13:08:01 7.5 C 7.12 g/m*3 7.5 C 0 km/h
67 26-03-2010 13:20:02 7.4 C 7.08 g/m*3 7.4 C 0 km/h
68 26-03-2010 13:32:01 7.5 C 7.2 g/m*3 7.5 C 0 km/h
69 26-03-2010 13:44:01 7.8 C 7.43 g/m*3 7.8 C 0 km/h
70 26-03-2010 13:56:02 7.7 C 7.38 g/m*3 7.7 C 0 km/h
71 26-03-2010 14:08:02 7.5 C 7.28 g/m*3 7.5 C 0 km/h
72 26-03-2010 14:20:02 7.4 C 7.16 g/m*3 7.4 C 0 km/h
73 26-03-2010 14:32:02 7.5 C 7.2 g/m*3 7.5 C 0 km/h
74 26-03-2010 14:44:02 8.1 C 7.49 g/m*3 8.1 C 0 km/h
75 26-03-2010 14:56:02 8.2 C 7.54 g/m*3 8.2 C 0 km/h
Sensor: Nr:Datum:Temp:Abs-Feuchte:Windchill:Wind:
Aussen-T/F 76 26-03-2010 15:08:01 8.1 C 7.41 g/m*3 8.1 C 0 km/h
77 26-03-2010 15:20:01 8.2 C 7.45 g/m*3 8.2 C 0 km/h
78 26-03-2010 15:32:01 8.1 C 7.32 g/m*3 8.1 C 0 km/h
79 26-03-2010 15:44:01 8.3 C 7.42 g/m*3 8.3 C 0 km/h
80 26-03-2010 15:56:02 8.6 C 7.65 g/m*3 8.6 C 0 km/h
81 26-03-2010 16:08:02 8.7 C 7.7 g/m*3 8.7 C 0 km/h
82 26-03-2010 16:20:01 8.5 C 7.51 g/m*3 8.5 C 0 km/h
83 26-03-2010 16:32:01 8.6 C 7.56 g/m*3 8.6 C 0 km/h
84 26-03-2010 16:44:01 8.5 C 7.51 g/m*3 8.5 C 0 km/h
85 26-03-2010 16:56:01 8.4 C 7.38 g/m*3 8.4 C 0 km/h
86 26-03-2010 17:08:02 8.6 C 7.3 g/m*3 8.6 C 0 km/h
87 26-03-2010 17:20:02 8.6 C 7.22 g/m*3 8.6 C 0 km/h
88 26-03-2010 17:32:02 8.6 C 7.22 g/m*3 8.6 C 0 km/h
89 26-03-2010 17:44:02 8.6 C 7.22 g/m*3 8.6 C 0 km/h
90 26-03-2010 17:56:01 8.6 C 7.22 g/m*3 8.6 C 0 km/h
91 26-03-2010 18:08:02 8.5 C 7.17 g/m*3 8.5 C 0 km/h
92 26-03-2010 18:20:02 8.8 C 7.22 g/m*3 8.8 C 0 km/h
93 26-03-2010 18:32:01 8.7 C 7.01 g/m*3 8.7 C 0 km/h
94 26-03-2010 18:44:01 8.6 C 6.87 g/m*3 8.6 C 0 km/h
95 26-03-2010 18:56:02 8.6 C 6.96 g/m*3 8.6 C 0 km/h
96 26-03-2010 19:08:01 8.4 C 6.96 g/m*3 8.4 C 0 km/h
97 26-03-2010 19:20:02 8.4 C 7.04 g/m*3 8.4 C 0 km/h
98 26-03-2010 19:32:01 8.5 C 7.09 g/m*3 8.5 C 0 km/h
99 26-03-2010 19:44:01 8.4 C 7.04 g/m*3 8.4 C 0 km/h
100 26-03-2010 19:56:01 8.4 C 7.13 g/m*3 8.4 C 0 km/h
Sensor: Nr:Datum:Temp:Abs-Feuchte:Windchill:Wind:
Aussen-T/F 101 26-03-2010 20:08:01 8.5 C 7.09 g/m*3 8.5 C 0 km/h
102 26-03-2010 20:20:01 8.7 C 7.09 g/m*3 8.7 C 0 km/h
103 26-03-2010 20:32:02 8.7 C 6.92 g/m*3 8.7 C 0 km/h
104 26-03-2010 20:44:02 8.6 C 6.7 g/m*3 8.6 C 0 km/h
105 26-03-2010 20:56:02 8.4 C 6.53 g/m*3 8.4 C 0 km/h
106 26-03-2010 21:08:02 8.3 C 6.41 g/m*3 8.3 C 0 km/h
107 26-03-2010 21:20:01 8.5 C 6.15 g/m*3 8.5 C 0 km/h
108 26-03-2010 21:33:02 8.5 C 6.15 g/m*3 8.5 C 0 km/h
109 26-03-2010 21:45:03 8.3 C 6.15 g/m*3 8.3 C 0 km/h
110 26-03-2010 21:57:03 8.4 C 6.19 g/m*3 8.4 C 0 km/h
111 26-03-2010 22:09:03 8.3 C 6.32 g/m*3 8.3 C 0 km/h
112 26-03-2010 22:21:03 8.3 C 6.32 g/m*3 8.3 C 0 km/h
113 26-03-2010 22:33:03 8.2 C 6.36 g/m*3 8.2 C 0 km/h
114 26-03-2010 22:45:03 8.1 C 6.41 g/m*3 8.1 C 0 km/h
115 26-03-2010 22:57:03 7.8 C 6.37 g/m*3 7.8 C 0 km/h
116 26-03-2010 23:09:03 7.7 C 6.49 g/m*3 7.7 C 0 km/h
117 26-03-2010 23:21:03 7.8 C 6.53 g/m*3 7.8 C 0 km/h
118 26-03-2010 23:33:03 7.8 C 6.45 g/m*3 7.8 C 0 km/h
119 26-03-2010 23:45:03 7.6 C 6.44 g/m*3 7.6 C 0 km/h
120 26-03-2010 23:57:03 7.7 C 6.49 g/m*3 7.7 C 0 km/h
121 27-03-2010 00:09:03 7.7 C 6.41 g/m*3 7.7 C 0 km/h
122 27-03-2010 00:21:03 7.9 C 6.49 g/m*3 7.9 C 0 km/h
123 27-03-2010 00:33:03 7.9 C 6.49 g/m*3 7.9 C 0 km/h
124 27-03-2010 00:45:03 8 C 6.45 g/m*3 8 C 0 km/h
125 27-03-2010 00:57:03 8.2 C 6.45 g/m*3 8.2 C 0 km/h
Sensor: Nr:Datum:Temp:Abs-Feuchte:Windchill:Wind:
Aussen-T/F 126 27-03-2010 01:09:03 8.4 C 6.45 g/m*3 8.4 C 0 km/h
127 27-03-2010 01:21:03 8.4 C 6.36 g/m*3 8.4 C 0 km/h
128 27-03-2010 01:33:03 8.5 C 6.4 g/m*3 8.5 C 0 km/h
129 27-03-2010 01:45:03 8.5 C 6.23 g/m*3 8.5 C 0 km/h
130 27-03-2010 01:57:03 8.5 C 6.23 g/m*3 8.5 C 0 km/h
131 27-03-2010 02:09:03 8.5 C 6.06 g/m*3 8.5 C 0 km/h
132 27-03-2010 02:21:04 8.2 C 6.11 g/m*3 8.2 C 0 km/h
133 27-03-2010 02:33:04 8.1 C 5.99 g/m*3 8.1 C 0 km/h
134 27-03-2010 02:45:04 8 C 6.04 g/m*3 8 C 0 km/h
135 27-03-2010 02:57:04 8.3 C 6.15 g/m*3 8.3 C 0 km/h
136 27-03-2010 03:09:04 8.4 C 6.19 g/m*3 8.4 C 0 km/h
137 27-03-2010 03:21:04 8.1 C 6.07 g/m*3 8.1 C 0 km/h
138 27-03-2010 03:33:04 7.9 C 6.16 g/m*3 7.9 C 0 km/h
139 27-03-2010 03:45:04 8 C 6.2 g/m*3 8 C 0 km/h
140 27-03-2010 03:57:04 8.1 C 6.07 g/m*3 8.1 C 0 km/h
141 27-03-2010 04:09:04 8.1 C 6.07 g/m*3 8.1 C 0 km/h
142 27-03-2010 04:21:04 8.2 C 6.03 g/m*3 8.2 C 0 km/h
143 27-03-2010 04:33:04 8.2 C 6.03 g/m*3 8.2 C 0 km/h
144 27-03-2010 04:45:04 8.2 C 5.95 g/m*3 8.2 C 0 km/h
145 27-03-2010 04:57:04 8.2 C 5.95 g/m*3 8.2 C 0 km/h
146 27-03-2010 05:09:05 8.1 C 5.91 g/m*3 8.1 C 0 km/h
147 27-03-2010 05:21:05 8.1 C 5.99 g/m*3 8.1 C 0 km/h
148 27-03-2010 05:33:05 8.1 C 5.99 g/m*3 8.1 C 0 km/h
149 27-03-2010 05:45:05 8 C 5.95 g/m*3 8 C 0 km/h
150 27-03-2010 05:57:05 8 C 5.87 g/m*3 8 C 0 km/h
Sensor: Nr:Datum:Temp:Abs-Feuchte:Windchill:Wind:
Aussen-T/F 151 27-03-2010 06:09:05 8 C 5.79 g/m*3 8 C 0 km/h
152 27-03-2010 06:21:05 8 C 5.7 g/m*3 8 C 0 km/h
153 27-03-2010 06:33:02 8.1 C 5.74 g/m*3 8.1 C 0 km/h
154 27-03-2010 06:45:02 8.1 C 5.74 g/m*3 8.1 C 0 km/h
155 27-03-2010 06:57:02 8.2 C 5.69 g/m*3 8.2 C 0 km/h
156 27-03-2010 07:09:01 8.3 C 5.65 g/m*3 8.3 C 0 km/h
157 27-03-2010 07:21:02 8.4 C 5.68 g/m*3 8.4 C 0 km/h
158 27-03-2010 07:33:02 8.5 C 5.72 g/m*3 8.5 C 0 km/h
159 27-03-2010 07:45:02 8.5 C 5.64 g/m*3 8.5 C 0 km/h
160 27-03-2010 07:57:02 8.5 C 5.72 g/m*3 8.5 C 0 km/h
161 27-03-2010 08:09:02 8.5 C 5.72 g/m*3 8.5 C 0 km/h
162 27-03-2010 08:21:02 8.7 C 5.79 g/m*3 8.7 C 0 km/h
163 27-03-2010 08:33:02 8.9 C 5.69 g/m*3 8.9 C 0 km/h
164 27-03-2010 08:45:01 9.3 C 5.75 g/m*3 9.3 C 0 km/h
165 27-03-2010 08:57:01 9.6 C 5.68 g/m*3 9.6 C 0 km/h
166 27-03-2010 09:09:02 10 C 5.54 g/m*3 10 C 0 km/h
167 27-03-2010 09:21:01 9.8 C 5.57 g/m*3 9.8 C 0 km/h
168 27-03-2010 09:33:02 9.5 C 5.55 g/m*3 9.5 C 0 km/h
169 27-03-2010 09:45:02 9.7 C 5.62 g/m*3 9.7 C 0 km/h
170 27-03-2010 09:57:02 9.7 C 5.72 g/m*3 9.7 C 0 km/h
171 27-03-2010 10:09:02 9.7 C 5.62 g/m*3 9.7 C 0 km/h
172 27-03-2010 10:21:02 9.8 C 5.66 g/m*3 9.8 C 0 km/h
173 27-03-2010 10:33:02 10.1 C 5.2 g/m*3 10.1 C 0 km/h
174 27-03-2010 10:45:01 10.6 C 5.17 g/m*3 10.6 C 0 km/h
175 27-03-2010 10:57:01 11.1 C 5.14 g/m*3 11.1 C 0 km/h
Sensor: Nr:Datum:Temp:Abs-Feuchte:Windchill:Wind:
Aussen-T/F 176 27-03-2010 11:09:02 11.5 C 4.96 g/m*3 11.5 C 0 km/h
177 27-03-2010 11:21:01 11.3 C 4.79 g/m*3 11.3 C 0 km/h
178 27-03-2010 11:33:02 11.3 C 5 g/m*3 11.3 C 0 km/h
179 27-03-2010 11:45:02 11.7 C 4.92 g/m*3 11.7 C 0 km/h
180 27-03-2010 11:57:02 11.8 C 4.95 g/m*3 11.8 C 0 km/h
181 27-03-2010 12:09:02 11.9 C 4.87 g/m*3 11.9 C 0 km/h
182 27-03-2010 12:21:01 11.8 C 4.74 g/m*3 11.8 C 0 km/h
183 27-03-2010 12:33:02 11.9 C 4.98 g/m*3 11.9 C 0 km/h
184 27-03-2010 12:45:03 11.6 C 5.3 g/m*3 11.6 C 0 km/h
185 27-03-2010 12:57:03 10.8 C 5.73 g/m*3 10.8 C 0 km/h
186 27-03-2010 13:09:02 10.7 C 5.89 g/m*3 10.7 C 0 km/h
187 27-03-2010 13:21:02 11.4 C 5.85 g/m*3 11.4 C 0 km/h
188 27-03-2010 13:33:02 11.3 C 5.61 g/m*3 11.3 C 0 km/h
189 27-03-2010 13:45:02 11.4 C 5.34 g/m*3 11.4 C 0 km/h
190 27-03-2010 13:57:02 12 C 5.12 g/m*3 12 C 0 km/h
191 27-03-2010 14:09:02 11.8 C 5.16 g/m*3 11.8 C 0 km/h
192 27-03-2010 14:21:02 11.2 C 4.97 g/m*3 11.2 C 0 km/h
193 27-03-2010 14:33:01 11.1 C 5.04 g/m*3 11.1 C 0 km/h
194 27-03-2010 14:45:02 10.9 C 5.07 g/m*3 10.9 C 0 km/h
195 27-03-2010 14:57:03 11 C 5 g/m*3 11 C 0 km/h
196 27-03-2010 15:09:01 11.2 C 4.97 g/m*3 11.2 C 0 km/h
197 27-03-2010 15:21:01 11.2 C 4.87 g/m*3 11.2 C 0 km/h
198 27-03-2010 15:33:02 11.8 C 4.95 g/m*3 11.8 C 0 km/h
199 27-03-2010 15:45:02 12.5 C 4.84 g/m*3 12.5 C 0 km/h
200 27-03-2010 15:57:02 12.1 C 4.72 g/m*3 12.1 C 0 km/h
Sensor: Nr:Datum:Temp:Abs-Feuchte:Windchill:Wind:
Aussen-T/F 201 27-03-2010 16:09:02 11.2 C 4.87 g/m*3 11.2 C 0 km/h
202 27-03-2010 16:21:02 10.8 C 5.04 g/m*3 10.8 C 0 km/h
203 27-03-2010 16:33:02 10.8 C 5.04 g/m*3 10.8 C 0 km/h
204 27-03-2010 16:45:02 10.7 C 5.11 g/m*3 10.7 C 0 km/h
205 27-03-2010 16:57:02 10.7 C 5.11 g/m*3 10.7 C 0 km/h
206 27-03-2010 17:09:03 11 C 5.1 g/m*3 11 C 0 km/h
207 27-03-2010 17:21:02 11.6 C 5.09 g/m*3 11.6 C 0 km/h
208 27-03-2010 17:33:02 11.2 C 5.17 g/m*3 11.2 C 0 km/h
209 27-03-2010 17:45:01 11.3 C 5.2 g/m*3 11.3 C 0 km/h
210 27-03-2010 17:57:01 11.8 C 5.05 g/m*3 11.8 C 0 km/h
211 27-03-2010 18:09:02 11.4 C 5.13 g/m*3 11.4 C 0 km/h
212 27-03-2010 18:21:01 11.4 C 5.13 g/m*3 11.4 C 0 km/h
213 27-03-2010 18:33:01 11.3 C 5 g/m*3 11.3 C 0 km/h
214 27-03-2010 18:45:01 10.5 C 5.14 g/m*3 10.5 C 0 km/h
215 27-03-2010 18:57:01 10 C 5.17 g/m*3 10 C 0 km/h
216 27-03-2010 19:09:01 9.5 C 5.19 g/m*3 9.5 C 0 km/h
217 27-03-2010 19:21:02 9.2 C 5.27 g/m*3 9.2 C 0 km/h
218 27-03-2010 19:33:01 8.9 C 5.34 g/m*3 8.9 C 0 km/h
219 27-03-2010 19:45:02 8.7 C 5.45 g/m*3 8.7 C 0 km/h
220 27-03-2010 19:57:02 8.5 C 5.55 g/m*3 8.5 C 0 km/h
221 27-03-2010 20:09:02 8.3 C 5.56 g/m*3 8.3 C 0 km/h
222 27-03-2010 20:21:02 8.2 C 5.61 g/m*3 8.2 C 0 km/h
223 27-03-2010 20:33:01 7.9 C 5.67 g/m*3 7.9 C 0 km/h
224 27-03-2010 20:45:02 7.7 C 5.76 g/m*3 7.7 C 0 km/h
225 27-03-2010 20:57:02 7.5 C 5.76 g/m*3 7.5 C 0 km/h
Sensor: Nr:Datum:Temp:Abs-Feuchte:Windchill:Wind:
Aussen-T/F 226 27-03-2010 21:09:01 7.4 C 5.81 g/m*3 7.4 C 0 km/h
227 27-03-2010 21:21:01 7.4 C 5.96 g/m*3 7.4 C 0 km/h
228 27-03-2010 21:33:02 7.2 C 5.97 g/m*3 7.2 C 0 km/h
229 27-03-2010 21:45:02 7.2 C 6.04 g/m*3 7.2 C 0 km/h
230 27-03-2010 21:57:02 7.1 C 6.08 g/m*3 7.1 C 0 km/h
231 27-03-2010 22:09:02 7.2 C 6.12 g/m*3 7.2 C 0 km/h
232 27-03-2010 22:21:02 7.1 C 6.16 g/m*3 7.1 C 0 km/h
233 27-03-2010 22:33:02 7.2 C 6.2 g/m*3 7.2 C 0 km/h
234 27-03-2010 22:45:02 7.4 C 6.28 g/m*3 7.4 C 0 km/h
235 27-03-2010 22:57:02 7.4 C 6.2 g/m*3 7.4 C 0 km/h
236 27-03-2010 23:09:03 7.7 C 6.16 g/m*3 7.7 C 0 km/h
237 27-03-2010 23:21:02 7.8 C 6.04 g/m*3 7.8 C 0 km/h
238 27-03-2010 23:33:03 8 C 5.87 g/m*3 8 C 0 km/h
239 27-03-2010 23:45:02 7.7 C 6 g/m*3 7.7 C 0 km/h
240 27-03-2010 23:57:02 7.7 C 6 g/m*3 7.7 C 0 km/h
241 28-03-2010 00:09:02 7.7 C 6 g/m*3 7.7 C 0 km/h
242 28-03-2010 00:21:02 7.4 C 5.96 g/m*3 7.4 C 0 km/h
243 28-03-2010 00:33:02 7.5 C 6.08 g/m*3 7.5 C 0 km/h
244 28-03-2010 00:45:02 7.7 C 6.08 g/m*3 7.7 C 0 km/h
245 28-03-2010 00:57:02 7.7 C 6.08 g/m*3 7.7 C 0 km/h
246 28-03-2010 01:09:02 7.9 C 6.08 g/m*3 7.9 C 0 km/h
247 28-03-2010 01:21:02 8.2 C 5.95 g/m*3 8.2 C 0 km/h
248 28-03-2010 01:33:01 8.4 C 5.85 g/m*3 8.4 C 0 km/h
249 28-03-2010 01:45:02 8.4 C 5.85 g/m*3 8.4 C 0 km/h
250 28-03-2010 01:57:02 8.1 C 5.82 g/m*3 8.1 C 0 km/h
Sensor: Nr:Datum:Temp:Abs-Feuchte:Windchill:Wind:
Aussen-T/F 251 28-03-2010 02:09:01 7.9 C 5.91 g/m*3 7.9 C 0 km/h
252 28-03-2010 02:21:02 8.1 C 5.99 g/m*3 8.1 C 0 km/h
253 28-03-2010 02:33:01 8.4 C 6.02 g/m*3 8.4 C 0 km/h
254 28-03-2010 02:45:01 8.3 C 5.9 g/m*3 8.3 C 0 km/h
255 28-03-2010 02:57:01 8.2 C 5.95 g/m*3 8.2 C 0 km/h
256 28-03-2010 04:09:02 8.2 C 6.03 g/m*3 8.2 C 0 km/h
257 28-03-2010 04:21:01 8.1 C 5.99 g/m*3 8.1 C 0 km/h
258 28-03-2010 04:33:01 8.2 C 6.11 g/m*3 8.2 C 0 km/h
259 28-03-2010 04:45:01 8.2 C 6.11 g/m*3 8.2 C 0 km/h
260 28-03-2010 04:57:01 8.2 C 6.11 g/m*3 8.2 C 0 km/h
261 28-03-2010 05:09:01 8.2 C 6.03 g/m*3 8.2 C 0 km/h
262 28-03-2010 05:21:02 8.2 C 6.11 g/m*3 8.2 C 0 km/h
263 28-03-2010 05:33:01 8.1 C 6.24 g/m*3 8.1 C 0 km/h
264 28-03-2010 05:45:01 8.1 C 6.32 g/m*3 8.1 C 0 km/h
265 28-03-2010 05:57:01 8.1 C 6.32 g/m*3 8.1 C 0 km/h
266 28-03-2010 06:09:01 8.2 C 6.28 g/m*3 8.2 C 0 km/h
267 28-03-2010 06:21:02 8.4 C 6.36 g/m*3 8.4 C 0 km/h
268 28-03-2010 06:33:01 8.4 C 6.28 g/m*3 8.4 C 0 km/h
269 28-03-2010 06:45:02 8.4 C 6.36 g/m*3 8.4 C 0 km/h
270 28-03-2010 06:57:02 8.3 C 6.32 g/m*3 8.3 C 0 km/h
271 28-03-2010 07:09:01 8.2 C 6.28 g/m*3 8.2 C 0 km/h
272 28-03-2010 07:21:01 8.2 C 6.28 g/m*3 8.2 C 0 km/h
273 28-03-2010 07:33:01 8.2 C 6.11 g/m*3 8.2 C 0 km/h
274 28-03-2010 07:45:01 8.2 C 6.11 g/m*3 8.2 C 0 km/h
275 28-03-2010 07:57:02 8.3 C 6.15 g/m*3 8.3 C 0 km/h
Sensor: Nr:Datum:Temp:Abs-Feuchte:Windchill:Wind:
Aussen-T/F 276 28-03-2010 08:09:01 8.6 C 6.27 g/m*3 8.6 C 0 km/h
277 28-03-2010 08:21:01 8.7 C 6.23 g/m*3 8.7 C 0 km/h
278 28-03-2010 08:33:02 8.9 C 6.22 g/m*3 8.9 C 0 km/h
279 28-03-2010 08:45:01 9 C 6.08 g/m*3 9 C 0 km/h
280 28-03-2010 08:57:01 9.1 C 6.03 g/m*3 9.1 C 0 km/h
281 28-03-2010 09:09:02 9.1 C 5.94 g/m*3 9.1 C 0 km/h
282 28-03-2010 09:21:01 9.2 C 5.98 g/m*3 9.2 C 0 km/h
283 28-03-2010 09:33:02 9.8 C 5.94 g/m*3 9.8 C 0 km/h
284 28-03-2010 09:45:01 10.2 C 5.9 g/m*3 10.2 C 0 km/h
285 28-03-2010 09:57:01 10.4 C 5.88 g/m*3 10.4 C 0 km/h
286 28-03-2010 10:09:02 10.2 C 5.71 g/m*3 10.2 C 0 km/h
287 28-03-2010 10:21:01 10.1 C 5.77 g/m*3 10.1 C 0 km/h
288 28-03-2010 10:33:01 10.5 C 5.82 g/m*3 10.5 C 0 km/h
289 28-03-2010 10:45:01 10.7 C 5.8 g/m*3 10.7 C 0 km/h
290 28-03-2010 10:57:01 10.7 C 5.8 g/m*3 10.7 C 0 km/h
291 28-03-2010 11:09:01 11.2 C 5.47 g/m*3 11.2 C 0 km/h
292 28-03-2010 11:21:01 10.9 C 5.37 g/m*3 10.9 C 0 km/h
293 28-03-2010 11:33:01 10.9 C 5.57 g/m*3 10.9 C 0 km/h
294 28-03-2010 11:45:01 11.7 C 5.54 g/m*3 11.7 C 0 km/h
295 28-03-2010 11:57:01 11.3 C 5.41 g/m*3 11.3 C 0 km/h
296 28-03-2010 12:09:01 11 C 5.31 g/m*3 11 C 0 km/h
297 28-03-2010 12:21:02 10.8 C 5.63 g/m*3 10.8 C 0 km/h
298 28-03-2010 12:33:01 11.8 C 5.79 g/m*3 11.8 C 0 km/h
299 28-03-2010 12:45:02 12 C 5.44 g/m*3 12 C 0 km/h
300 28-03-2010 12:57:02 11.6 C 5.4 g/m*3 11.6 C 0 km/h
Sensor: Nr:Datum:Temp:Abs-Feuchte:Windchill:Wind:
Aussen-T/F 301 28-03-2010 13:09:01 11.6 C 5.51 g/m*3 11.6 C 0 km/h
302 28-03-2010 13:21:02 12.3 C 5.21 g/m*3 12.3 C 0 km/h
303 28-03-2010 13:33:01 11.9 C 5.3 g/m*3 11.9 C 0 km/h
304 28-03-2010 13:45:02 11.7 C 5.23 g/m*3 11.7 C 0 km/h
305 28-03-2010 13:57:02 11.5 C 5.37 g/m*3 11.5 C 0 km/h
306 28-03-2010 14:09:01 11.7 C 5.44 g/m*3 11.7 C 0 km/h
307 28-03-2010 14:21:01 12 C 5.22 g/m*3 12 C 0 km/h
308 28-03-2010 14:33:02 11.9 C 5.3 g/m*3 11.9 C 0 km/h
309 28-03-2010 14:45:01 10.2 C 6.19 g/m*3 10.2 C 0 km/h
310 28-03-2010 14:57:01 9.3 C 6.47 g/m*3 9.3 C 0 km/h
311 28-03-2010 15:09:01 10.1 C 6.81 g/m*3 10.1 C 0 km/h
312 28-03-2010 15:21:01 11.3 C 6.43 g/m*3 11.3 C 0 km/h
313 28-03-2010 15:33:02 11.7 C 6.48 g/m*3 11.7 C 0 km/h
314 28-03-2010 15:45:01 13.1 C 6.5 g/m*3 13.1 C 0 km/h
315 28-03-2010 15:57:01 13.7 C 6.16 g/m*3 13.7 C 0 km/h
316 28-03-2010 16:09:02 13.7 C 5.68 g/m*3 13.7 C 0 km/h
317 28-03-2010 16:21:01 13.4 C 4.88 g/m*3 13.4 C 0 km/h
318 28-03-2010 16:33:01 13.1 C 4.91 g/m*3 13.1 C 0 km/h
319 28-03-2010 16:45:01 12.6 C 5.09 g/m*3 12.6 C 0 km/h
320 28-03-2010 16:57:01 11 C 6.51 g/m*3 11 C 0 km/h
321 28-03-2010 17:09:02 11.1 C 7.15 g/m*3 11.1 C 0 km/h
322 28-03-2010 17:21:01 11.4 C 6.88 g/m*3 11.4 C 0 km/h
323 28-03-2010 17:33:01 11.6 C 6.86 g/m*3 11.6 C 0 km/h
324 28-03-2010 17:45:01 11.7 C 7.01 g/m*3 11.7 C 0 km/h
325 28-03-2010 17:57:01 11.7 C 6.07 g/m*3 11.7 C 0 km/h
Sensor: Nr:Datum:Temp:Abs-Feuchte:Windchill:Wind:
Aussen-T/F 326 28-03-2010 18:09:01 11.6 C 6.03 g/m*3 11.6 C 0 km/h
327 28-03-2010 18:21:02 11.5 C 5.78 g/m*3 11.5 C 0 km/h
328 28-03-2010 18:33:01 11.4 C 5.85 g/m*3 11.4 C 0 km/h
329 28-03-2010 18:45:01 11.3 C 5.92 g/m*3 11.3 C 0 km/h
330 28-03-2010 18:57:01 11.3 C 6.12 g/m*3 11.3 C 0 km/h
331 28-03-2010 19:09:01 11.2 C 6.08 g/m*3 11.2 C 0 km/h
332 28-03-2010 19:21:02 11.1 C 6.25 g/m*3 11.1 C 0 km/h
333 28-03-2010 19:33:01 10.9 C 6.37 g/m*3 10.9 C 0 km/h
334 28-03-2010 19:45:02 10.3 C 6.61 g/m*3 10.3 C 0 km/h
335 28-03-2010 19:57:02 10 C 6.77 g/m*3 10 C 0 km/h
336 28-03-2010 20:09:01 9.9 C 6.91 g/m*3 9.9 C 0 km/h
337 28-03-2010 20:21:01 9.8 C 6.96 g/m*3 9.8 C 0 km/h
338 28-03-2010 20:33:01 9.8 C 6.96 g/m*3 9.8 C 0 km/h
339 28-03-2010 20:45:01 9.9 C 6.91 g/m*3 9.9 C 0 km/h
340 28-03-2010 20:57:02 9.9 C 6.91 g/m*3 9.9 C 0 km/h
341 28-03-2010 21:09:01 9.9 C 6.91 g/m*3 9.9 C 0 km/h
342 28-03-2010 21:21:01 9.9 C 6.82 g/m*3 9.9 C 0 km/h
343 28-03-2010 21:33:02 9.9 C 6.82 g/m*3 9.9 C 0 km/h
344 28-03-2010 21:45:01 9.8 C 6.87 g/m*3 9.8 C 0 km/h
345 28-03-2010 21:57:01 9.8 C 6.87 g/m*3 9.8 C 0 km/h
346 28-03-2010 22:10:04 9.7 C 6.91 g/m*3 9.7 C 0 km/h
347 28-03-2010 22:22:04 9.6 C 6.78 g/m*3 9.6 C 0 km/h
348 28-03-2010 22:34:04 9.5 C 6.74 g/m*3 9.5 C 0 km/h
349 28-03-2010 22:46:04 9.4 C 6.87 g/m*3 9.4 C 0 km/h
350 28-03-2010 22:58:04 9.4 C 6.87 g/m*3 9.4 C 0 km/h
Sensor: Nr:Datum:Temp:Abs-Feuchte:Windchill:Wind:
Aussen-T/F 351 28-03-2010 23:10:04 9.5 C 6.92 g/m*3 9.5 C 0 km/h
352 28-03-2010 23:22:04 9.3 C 6.83 g/m*3 9.3 C 0 km/h
353 28-03-2010 23:34:04 9.4 C 6.96 g/m*3 9.4 C 0 km/h
354 28-03-2010 23:46:04 9.7 C 6.91 g/m*3 9.7 C 0 km/h
355 28-03-2010 23:58:04 9.8 C 6.87 g/m*3 9.8 C 0 km/h
356 29-03-2010 00:10:04 10 C 6.86 g/m*3 10 C 0 km/h
357 29-03-2010 00:22:04 10 C 6.77 g/m*3 10 C 0 km/h
358 29-03-2010 00:34:04 9.8 C 6.87 g/m*3 9.8 C 0 km/h
359 29-03-2010 00:46:04 9.8 C 6.87 g/m*3 9.8 C 0 km/h
360 29-03-2010 00:58:04 9.8 C 6.87 g/m*3 9.8 C 0 km/h
361 29-03-2010 01:10:04 9.8 C 7.05 g/m*3 9.8 C 0 km/h
362 29-03-2010 01:22:04 9.7 C 7.1 g/m*3 9.7 C 0 km/h
363 29-03-2010 01:34:04 9.6 C 7.15 g/m*3 9.6 C 0 km/h
364 29-03-2010 01:46:05 9.6 C 7.15 g/m*3 9.6 C 0 km/h
365 29-03-2010 01:58:05 9.6 C 7.24 g/m*3 9.6 C 0 km/h
366 29-03-2010 02:10:05 9.5 C 7.28 g/m*3 9.5 C 0 km/h
367 29-03-2010 02:22:05 9.3 C 7.28 g/m*3 9.3 C 0 km/h
368 29-03-2010 02:34:05 9.3 C 7.46 g/m*3 9.3 C 0 km/h
369 29-03-2010 02:46:05 9.3 C 7.55 g/m*3 9.3 C 0 km/h
370 29-03-2010 02:58:05 9.3 C 7.64 g/m*3 9.3 C 0 km/h
371 29-03-2010 03:10:05 9.3 C 7.73 g/m*3 9.3 C 0 km/h
372 29-03-2010 03:22:05 9.4 C 7.87 g/m*3 9.4 C 0 km/h
373 29-03-2010 03:34:05 10 C 7.99 g/m*3 10 C 0 km/h
374 29-03-2010 03:46:05 10.4 C 8.1 g/m*3 10.4 C 0 km/h
375 29-03-2010 03:58:05 10.6 C 8 g/m*3 10.6 C 0 km/h
Sensor: Nr:Datum:Temp:Abs-Feuchte:Windchill:Wind:
Aussen-T/F 376 29-03-2010 04:10:05 11 C 8.01 g/m*3 11 C 0 km/h
377 29-03-2010 04:22:05 11.1 C 7.96 g/m*3 11.1 C 0 km/h
378 29-03-2010 04:34:05 11.3 C 7.96 g/m*3 11.3 C 0 km/h
379 29-03-2010 04:46:05 11.5 C 7.95 g/m*3 11.5 C 0 km/h
380 29-03-2010 04:58:05 11.5 C 7.95 g/m*3 11.5 C 0 km/h
381 29-03-2010 05:10:05 11.5 C 7.95 g/m*3 11.5 C 0 km/h
382 29-03-2010 05:22:05 11.5 C 7.95 g/m*3 11.5 C 0 km/h
383 29-03-2010 05:34:05 11.5 C 8.06 g/m*3 11.5 C 0 km/h
384 29-03-2010 05:46:05 11.4 C 8.01 g/m*3 11.4 C 0 km/h
385 29-03-2010 05:58:05 11.5 C 8.06 g/m*3 11.5 C 0 km/h
386 29-03-2010 06:10:05 11.5 C 8.06 g/m*3 11.5 C 0 km/h
387 29-03-2010 06:22:06 11.5 C 8.06 g/m*3 11.5 C 0 km/h
388 29-03-2010 06:34:06 11.5 C 7.95 g/m*3 11.5 C 0 km/h
389 29-03-2010 06:46:01 11.4 C 7.9 g/m*3 11.4 C 0 km/h
390 29-03-2010 06:58:01 11.4 C 8.11 g/m*3 11.4 C 0 km/h
391 29-03-2010 07:10:02 11.2 C 8.11 g/m*3 11.2 C 0 km/h
392 29-03-2010 07:22:02 10.9 C 8.26 g/m*3 10.9 C 0 km/h
393 29-03-2010 07:34:02 10.7 C 8.35 g/m*3 10.7 C 0 km/h
394 29-03-2010 07:46:02 10.6 C 8.49 g/m*3 10.6 C 0 km/h
395 29-03-2010 07:58:02 10.6 C 8.59 g/m*3 10.6 C 0 km/h
396 29-03-2010 08:10:02 10.7 C 8.55 g/m*3 10.7 C 0 km/h
397 29-03-2010 08:22:01 10.8 C 8.5 g/m*3 10.8 C 0 km/h
398 29-03-2010 08:34:02 11.2 C 8.41 g/m*3 11.2 C 0 km/h
399 29-03-2010 08:46:02 11.4 C 8.11 g/m*3 11.4 C 0 km/h
400 29-03-2010 08:58:02 11.6 C 8 g/m*3 11.6 C 0 km/h
Sensor: Nr:Datum:Temp:Abs-Feuchte:Windchill:Wind:
Aussen-T/F 401 29-03-2010 09:10:02 11.8 C 7.89 g/m*3 11.8 C 0 km/h
402 29-03-2010 09:22:01 11.9 C 7.84 g/m*3 11.9 C 0 km/h
403 29-03-2010 09:34:02 12 C 7.78 g/m*3 12 C 0 km/h
404 29-03-2010 09:46:01 12.1 C 7.72 g/m*3 12.1 C 0 km/h
405 29-03-2010 09:58:01 12.2 C 7.77 g/m*3 12.2 C 0 km/h
406 29-03-2010 10:10:02 12.4 C 7.87 g/m*3 12.4 C 0 km/h
407 29-03-2010 10:22:02 12.6 C 7.85 g/m*3 12.6 C 0 km/h
408 29-03-2010 10:34:02 12.7 C 7.9 g/m*3 12.7 C 0 km/h
409 29-03-2010 10:46:02 12.5 C 7.7 g/m*3 12.5 C 0 km/h
410 29-03-2010 10:58:02 13 C 7.83 g/m*3 13 C 0 km/h
411 29-03-2010 11:10:02 13.1 C 7.87 g/m*3 13.1 C 0 km/h
412 29-03-2010 11:22:02 13.3 C 7.86 g/m*3 13.3 C 0 km/h
413 29-03-2010 11:34:01 13.5 C 7.84 g/m*3 13.5 C 0 km/h
414 29-03-2010 11:46:02 13.9 C 7.91 g/m*3 13.9 C 0 km/h
415 29-03-2010 11:58:02 14 C 7.72 g/m*3 14 C 0 km/h
416 29-03-2010 12:10:01 14.4 C 7.66 g/m*3 14.4 C 0 km/h
417 29-03-2010 12:22:02 15 C 7.57 g/m*3 15 C 0 km/h
418 29-03-2010 12:34:01 15.3 C 7.44 g/m*3 15.3 C 0 km/h
419 29-03-2010 12:46:02 14.9 C 7.52 g/m*3 14.9 C 0 km/h
420 29-03-2010 12:58:02 14.9 C 7.39 g/m*3 14.9 C 0 km/h
421 29-03-2010 13:10:02 15.3 C 7.18 g/m*3 15.3 C 0 km/h
422 29-03-2010 13:22:02 14.8 C 7.09 g/m*3 14.8 C 0 km/h
423 29-03-2010 13:34:03 14.6 C 7.38 g/m*3 14.6 C 0 km/h
424 29-03-2010 13:46:02 14.4 C 7.54 g/m*3 14.4 C 0 km/h
425 29-03-2010 13:58:02 13.8 C 8.1 g/m*3 13.8 C 0 km/h
Sensor: Nr:Datum:Temp:Abs-Feuchte:Windchill:Wind:
Aussen-T/F 426 29-03-2010 14:10:01 14.2 C 8.91 g/m*3 14.2 C 0 km/h
427 29-03-2010 14:22:02 14.7 C 8.69 g/m*3 14.7 C 0 km/h
428 29-03-2010 14:34:02 14.2 C 7.82 g/m*3 14.2 C 0 km/h
429 29-03-2010 14:46:02 13.1 C 8.33 g/m*3 13.1 C 0 km/h
430 29-03-2010 14:58:02 12.7 C 8.13 g/m*3 12.7 C 0 km/h
431 29-03-2010 15:10:02 13.2 C 8.38 g/m*3 13.2 C 0 km/h
432 29-03-2010 15:22:02 12.8 C 8.4 g/m*3 12.8 C 0 km/h
433 29-03-2010 15:34:02 12.8 C 8.62 g/m*3 12.8 C 0 km/h
434 29-03-2010 15:46:02 12.7 C 8.68 g/m*3 12.7 C 0 km/h
435 29-03-2010 15:58:02 13.4 C 8.6 g/m*3 13.4 C 0 km/h
436 29-03-2010 16:10:02 14 C 8.2 g/m*3 14 C 0 km/h
437 29-03-2010 16:22:02 14.2 C 7.69 g/m*3 14.2 C 0 km/h
438 29-03-2010 16:34:02 14.3 C 7.62 g/m*3 14.3 C 0 km/h
439 29-03-2010 16:46:02 14 C 7.96 g/m*3 14 C 0 km/h
440 29-03-2010 16:58:02 13.8 C 8.22 g/m*3 13.8 C 0 km/h
441 29-03-2010 17:10:02 12.2 C 8.31 g/m*3 12.2 C 0 km/h
442 29-03-2010 17:22:03 12.2 C 8.96 g/m*3 12.2 C 0 km/h
443 29-03-2010 17:34:02 12.6 C 9.4 g/m*3 12.6 C 0 km/h
444 29-03-2010 17:46:02 14.2 C 10.14 g/m*3 14.2 C 0 km/h
445 29-03-2010 17:58:02 14.5 C 9.45 g/m*3 14.5 C 0 km/h
446 29-03-2010 18:10:02 14.7 C 9.44 g/m*3 14.7 C 0 km/h
447 29-03-2010 18:22:02 14.9 C 8.92 g/m*3 14.9 C 0 km/h
448 29-03-2010 18:34:02 14.8 C 8.87 g/m*3 14.8 C 0 km/h
449 29-03-2010 18:46:02 14.5 C 8.83 g/m*3 14.5 C 0 km/h
450 29-03-2010 18:58:02 14.4 C 9.02 g/m*3 14.4 C 0 km/h
Sensor: Nr:Datum:Temp:Abs-Feuchte:Windchill:Wind:
Aussen-T/F 451 29-03-2010 19:10:01 14.2 C 8.91 g/m*3 14.2 C 0 km/h
452 29-03-2010 19:22:02 13.7 C 8.76 g/m*3 13.7 C 0 km/h
453 29-03-2010 19:34:01 13 C 8.73 g/m*3 13 C 0 km/h
454 29-03-2010 19:46:02 12.2 C 8.52 g/m*3 12.2 C 0 km/h
455 29-03-2010 19:58:02 11.7 C 8.37 g/m*3 11.7 C 0 km/h
456 29-03-2010 20:10:01 11.2 C 8.21 g/m*3 11.2 C 0 km/h
457 29-03-2010 20:22:01 10.8 C 8.2 g/m*3 10.8 C 0 km/h
458 29-03-2010 20:34:02 10.6 C 8.2 g/m*3 10.6 C 0 km/h
459 29-03-2010 20:46:02 10.5 C 8.15 g/m*3 10.5 C 0 km/h
460 29-03-2010 20:58:02 10.4 C 8.1 g/m*3 10.4 C 0 km/h
461 29-03-2010 21:10:01 10.3 C 8.04 g/m*3 10.3 C 0 km/h
462 29-03-2010 21:22:02 10.2 C 7.99 g/m*3 10.2 C 0 km/h
463 29-03-2010 21:34:02 10.3 C 8.04 g/m*3 10.3 C 0 km/h
464 29-03-2010 21:47:02 10.3 C 8.04 g/m*3 10.3 C 0 km/h
465 29-03-2010 21:59:02 10.2 C 7.99 g/m*3 10.2 C 0 km/h
466 29-03-2010 22:11:02 10 C 7.89 g/m*3 10 C 0 km/h
467 29-03-2010 22:23:03 10 C 7.89 g/m*3 10 C 0 km/h
468 29-03-2010 22:35:03 9.9 C 7.94 g/m*3 9.9 C 0 km/h
469 29-03-2010 22:47:03 9.8 C 7.89 g/m*3 9.8 C 0 km/h
470 29-03-2010 22:59:03 9.9 C 8.03 g/m*3 9.9 C 0 km/h
471 29-03-2010 23:11:03 9.9 C 7.94 g/m*3 9.9 C 0 km/h
472 29-03-2010 23:23:03 9.9 C 7.94 g/m*3 9.9 C 0 km/h
473 29-03-2010 23:35:03 10.1 C 7.85 g/m*3 10.1 C 0 km/h
474 29-03-2010 23:47:03 10.1 C 7.66 g/m*3 10.1 C 0 km/h
475 29-03-2010 23:59:03 10.2 C 7.71 g/m*3 10.2 C 0 km/h
Sensor: Nr:Datum:Temp:Abs-Feuchte:Windchill:Wind:
Aussen-T/F 476 30-03-2010 00:11:03 10.2 C 7.61 g/m*3 10.2 C 0 km/h
477 30-03-2010 00:23:03 10.3 C 7.66 g/m*3 10.3 C 0 km/h
478 30-03-2010 00:35:03 10.6 C 7.71 g/m*3 10.6 C 0 km/h
479 30-03-2010 00:47:03 10.7 C 7.66 g/m*3 10.7 C 0 km/h
480 30-03-2010 00:59:03 11.1 C 7.66 g/m*3 11.1 C 0 km/h
481 30-03-2010 01:11:03 11.3 C 7.65 g/m*3 11.3 C 0 km/h
482 30-03-2010 01:23:03 11.3 C 7.65 g/m*3 11.3 C 0 km/h
483 30-03-2010 01:35:03 11.3 C 7.55 g/m*3 11.3 C 0 km/h
484 30-03-2010 01:47:03 11 C 7.41 g/m*3 11 C 0 km/h
485 30-03-2010 01:59:03 11.1 C 7.35 g/m*3 11.1 C 0 km/h
486 30-03-2010 02:11:03 11.3 C 7.24 g/m*3 11.3 C 0 km/h
487 30-03-2010 02:23:03 11.3 C 7.24 g/m*3 11.3 C 0 km/h
488 30-03-2010 02:35:03 11.1 C 7.25 g/m*3 11.1 C 0 km/h
489 30-03-2010 02:47:04 11.7 C 7.22 g/m*3 11.7 C 0 km/h
490 30-03-2010 02:59:04 11.6 C 7.17 g/m*3 11.6 C 0 km/h
491 30-03-2010 03:11:04 11.3 C 7.14 g/m*3 11.3 C 0 km/h
492 30-03-2010 03:23:04 11.3 C 7.24 g/m*3 11.3 C 0 km/h
493 30-03-2010 03:35:04 10.9 C 7.16 g/m*3 10.9 C 0 km/h
494 30-03-2010 03:47:04 10.8 C 7.22 g/m*3 10.8 C 0 km/h
495 30-03-2010 03:59:04 11 C 7.21 g/m*3 11 C 0 km/h
496 30-03-2010 04:11:04 11.4 C 7.29 g/m*3 11.4 C 0 km/h
497 30-03-2010 04:23:04 11.4 C 7.19 g/m*3 11.4 C 0 km/h
498 30-03-2010 04:35:04 11.5 C 7.13 g/m*3 11.5 C 0 km/h
499 30-03-2010 04:47:04 11.4 C 7.08 g/m*3 11.4 C 0 km/h
500 30-03-2010 04:59:04 11.3 C 7.14 g/m*3 11.3 C 0 km/h
Sensor: Nr:Datum:Temp:Abs-Feuchte:Windchill:Wind:
Aussen-T/F 501 30-03-2010 05:11:04 11.4 C 7.29 g/m*3 11.4 C 0 km/h
502 30-03-2010 05:23:04 11.1 C 7.05 g/m*3 11.1 C 0 km/h
503 30-03-2010 05:35:04 11 C 7.01 g/m*3 11 C 0 km/h
504 30-03-2010 05:47:04 10.7 C 7.07 g/m*3 10.7 C 0 km/h
505 30-03-2010 05:59:04 10.5 C 6.98 g/m*3 10.5 C 0 km/h
506 30-03-2010 06:11:04 10.5 C 7.08 g/m*3 10.5 C 0 km/h
507 30-03-2010 06:23:04 10.3 C 7.09 g/m*3 10.3 C 0 km/h
508 30-03-2010 06:35:04 10 C 6.95 g/m*3 10 C 0 km/h
509 30-03-2010 06:47:04 9.8 C 7.14 g/m*3 9.8 C 0 km/h
510 30-03-2010 06:59:04 9.8 C 7.24 g/m*3 9.8 C 0 km/h
511 30-03-2010 07:11:01 10 C 7.14 g/m*3 10 C 0 km/h
512 30-03-2010 07:23:02 10.2 C 7.04 g/m*3 10.2 C 0 km/h
513 30-03-2010 07:35:02 10.5 C 6.89 g/m*3 10.5 C 0 km/h
514 30-03-2010 07:47:02 10.6 C 6.83 g/m*3 10.6 C 0 km/h
515 30-03-2010 07:59:02 10.7 C 6.88 g/m*3 10.7 C 0 km/h
516 30-03-2010 08:11:02 10.7 C 6.88 g/m*3 10.7 C 0 km/h
517 30-03-2010 08:23:02 11 C 6.91 g/m*3 11 C 0 km/h
518 30-03-2010 08:35:02 11.1 C 6.85 g/m*3 11.1 C 0 km/h
519 30-03-2010 08:47:01 11.4 C 6.67 g/m*3 11.4 C 0 km/h
520 30-03-2010 08:59:01 11.4 C 6.77 g/m*3 11.4 C 0 km/h
521 30-03-2010 09:11:02 11.8 C 6.95 g/m*3 11.8 C 0 km/h
522 30-03-2010 09:23:01 12.2 C 6.69 g/m*3 12.2 C 0 km/h
523 30-03-2010 09:35:02 12.6 C 6.75 g/m*3 12.6 C 0 km/h
524 30-03-2010 09:47:02 12.9 C 6.54 g/m*3 12.9 C 0 km/h
525 30-03-2010 09:59:02 13.1 C 6.39 g/m*3 13.1 C 0 km/h
Sensor: Nr:Datum:Temp:Abs-Feuchte:Windchill:Wind:
Aussen-T/F 526 30-03-2010 10:11:02 13.2 C 6.43 g/m*3 13.2 C 0 km/h
527 30-03-2010 10:23:01 13.1 C 5.93 g/m*3 13.1 C 0 km/h
528 30-03-2010 10:35:02 14.2 C 6.11 g/m*3 14.2 C 0 km/h
529 30-03-2010 10:47:02 14.4 C 5.07 g/m*3 14.4 C 0 km/h
530 30-03-2010 10:59:02 14.1 C 4.85 g/m*3 14.1 C 0 km/h
531 30-03-2010 11:11:02 14.1 C 4.98 g/m*3 14.1 C 0 km/h
532 30-03-2010 11:23:01 15 C 4.74 g/m*3 15 C 0 km/h
533 30-03-2010 11:35:02 15.2 C 4.67 g/m*3 15.2 C 0 km/h
534 30-03-2010 11:47:02 15.3 C 4.57 g/m*3 15.3 C 0 km/h
535 30-03-2010 11:59:02 15.8 C 4.71 g/m*3 15.8 C 0 km/h
536 30-03-2010 12:11:02 16 C 4.63 g/m*3 16 C 0 km/h
537 30-03-2010 12:23:02 16.2 C 4.55 g/m*3 16.2 C 0 km/h
538 30-03-2010 12:35:02 16.6 C 4.66 g/m*3 16.6 C 0 km/h
539 30-03-2010 12:47:02 16.7 C 4.55 g/m*3 16.7 C 0 km/h
540 30-03-2010 12:59:02 17.2 C 4.69 g/m*3 17.2 C 0 km/h
541 30-03-2010 13:11:02 17.4 C 4.59 g/m*3 17.4 C 0 km/h
542 30-03-2010 13:23:02 17.3 C 4.71 g/m*3 17.3 C 0 km/h
543 30-03-2010 13:35:02 17.7 C 4.83 g/m*3 17.7 C 0 km/h
544 30-03-2010 13:47:02 18.1 C 4.79 g/m*3 18.1 C 0 km/h
545 30-03-2010 13:59:02 18.2 C 4.66 g/m*3 18.2 C 0 km/h
546 30-03-2010 14:11:02 18.5 C 4.9 g/m*3 18.5 C 0 km/h
547 30-03-2010 14:23:02 18.9 C 4.7 g/m*3 18.9 C 0 km/h
548 30-03-2010 14:35:01 18.3 C 4.53 g/m*3 18.3 C 0 km/h
549 30-03-2010 14:47:02 18 C 4.61 g/m*3 18 C 0 km/h
550 30-03-2010 14:59:02 17.7 C 4.68 g/m*3 17.7 C 0 km/h
Sensor: Nr:Datum:Temp:Abs-Feuchte:Windchill:Wind:
Aussen-T/F 551 30-03-2010 15:11:01 17.9 C 4.58 g/m*3 17.9 C 0 km/h
552 30-03-2010 15:23:01 17.7 C 4.68 g/m*3 17.7 C 0 km/h
553 30-03-2010 15:35:02 18.6 C 4.62 g/m*3 18.6 C 0 km/h
554 30-03-2010 15:47:02 18.7 C 4.48 g/m*3 18.7 C 0 km/h
555 30-03-2010 15:59:03 18.2 C 4.51 g/m*3 18.2 C 0 km/h
556 30-03-2010 16:11:02 18.7 C 4.64 g/m*3 18.7 C 0 km/h
557 30-03-2010 16:23:02 17.5 C 5.22 g/m*3 17.5 C 0 km/h
558 30-03-2010 16:35:02 16.4 C 5.58 g/m*3 16.4 C 0 km/h
559 30-03-2010 16:47:01 15.9 C 5.55 g/m*3 15.9 C 0 km/h
560 30-03-2010 16:59:01 15.6 C 5.45 g/m*3 15.6 C 0 km/h
561 30-03-2010 17:11:02 14.9 C 5.48 g/m*3 14.9 C 0 km/h
562 30-03-2010 17:23:01 14.4 C 5.44 g/m*3 14.4 C 0 km/h
563 30-03-2010 17:35:02 14.2 C 5.49 g/m*3 14.2 C 0 km/h
564 30-03-2010 17:47:02 14 C 5.43 g/m*3 14 C 0 km/h
565 30-03-2010 17:59:02 13.8 C 5.48 g/m*3 13.8 C 0 km/h
566 30-03-2010 18:11:02 13.6 C 5.65 g/m*3 13.6 C 0 km/h
567 30-03-2010 18:23:02 13.3 C 5.89 g/m*3 13.3 C 0 km/h
568 30-03-2010 18:35:02 12.9 C 6.2 g/m*3 12.9 C 0 km/h
569 30-03-2010 18:47:02 12 C 6.39 g/m*3 12 C 0 km/h
570 30-03-2010 18:59:02 11.6 C 6.65 g/m*3 11.6 C 0 km/h
571 30-03-2010 19:11:02 11.5 C 6.82 g/m*3 11.5 C 0 km/h
572 30-03-2010 19:23:02 11.1 C 6.65 g/m*3 11.1 C 0 km/h
573 30-03-2010 19:35:02 11.3 C 6.73 g/m*3 11.3 C 0 km/h
574 30-03-2010 19:47:01 11.4 C 6.67 g/m*3 11.4 C 0 km/h
575 30-03-2010 19:59:01 11.3 C 6.43 g/m*3 11.3 C 0 km/h
Sensor: Nr:Datum:Temp:Abs-Feuchte:Windchill:Wind:
Aussen-T/F 576 30-03-2010 20:11:02 10.9 C 6.47 g/m*3 10.9 C 0 km/h
577 30-03-2010 20:23:01 10.5 C 6.4 g/m*3 10.5 C 0 km/h
578 30-03-2010 20:35:01 10.6 C 6.44 g/m*3 10.6 C 0 km/h
579 30-03-2010 20:47:01 10.7 C 6.38 g/m*3 10.7 C 0 km/h
580 30-03-2010 20:59:01 10.7 C 6.29 g/m*3 10.7 C 0 km/h
581 30-03-2010 21:11:02 10.4 C 6.36 g/m*3 10.4 C 0 km/h
582 30-03-2010 21:23:01 10.1 C 6.24 g/m*3 10.1 C 0 km/h
583 30-03-2010 21:35:01 10 C 6.3 g/m*3 10 C 0 km/h
584 30-03-2010 21:47:01 9.8 C 6.31 g/m*3 9.8 C 0 km/h
585 30-03-2010 21:59:01 9.7 C 6.27 g/m*3 9.7 C 0 km/h
586 30-03-2010 22:11:02 9.4 C 6.24 g/m*3 9.4 C 0 km/h
587 30-03-2010 22:23:02 9.3 C 6.29 g/m*3 9.3 C 0 km/h
588 30-03-2010 22:36:04 9.6 C 6.32 g/m*3 9.6 C 0 km/h
589 30-03-2010 22:48:05 9.8 C 6.12 g/m*3 9.8 C 0 km/h
590 30-03-2010 23:00:05 10.2 C 5.8 g/m*3 10.2 C 0 km/h
591 30-03-2010 23:12:05 10.6 C 5.76 g/m*3 10.6 C 0 km/h
592 30-03-2010 23:24:05 7.9 C 5.83 g/m*3 7.9 C 0 km/h
593 30-03-2010 23:36:05 7.4 C 5.49 g/m*3 7.4 C 0 km/h
594 30-03-2010 23:48:05 7.3 C 5.37 g/m*3 7.3 C 0 km/h
595 31-03-2010 00:00:05 7.1 C 5.07 g/m*3 7.1 C 0 km/h
596 31-03-2010 00:12:05 7 C 4.88 g/m*3 7 C 0 km/h
597 31-03-2010 00:24:05 6.9 C 4.93 g/m*3 6.9 C 0 km/h
598 31-03-2010 00:36:05 6.6 C 4.83 g/m*3 6.6 C 0 km/h
599 31-03-2010 00:48:05 6.6 C 4.76 g/m*3 6.6 C 0 km/h
600 31-03-2010 01:00:05 6.3 C 4.74 g/m*3 6.3 C 0 km/h
Sensor: Nr:Datum:Temp:Abs-Feuchte:Windchill:Wind:
Aussen-T/F 601 31-03-2010 01:12:05 6.2 C 4.71 g/m*3 6.2 C 0 km/h
602 31-03-2010 01:24:05 6.3 C 4.74 g/m*3 6.3 C 0 km/h
603 31-03-2010 01:36:05 6.2 C 4.63 g/m*3 6.2 C 0 km/h
604 31-03-2010 01:48:05 6.1 C 4.6 g/m*3 6.1 C 0 km/h
605 31-03-2010 02:00:05 6 C 4.57 g/m*3 6 C 0 km/h
606 31-03-2010 02:12:05 6 C 4.65 g/m*3 6 C 0 km/h
607 31-03-2010 02:24:05 6 C 4.65 g/m*3 6 C 0 km/h
608 31-03-2010 02:36:05 6 C 4.65 g/m*3 6 C 0 km/h
609 31-03-2010 02:48:05 5.9 C 4.69 g/m*3 5.9 C 0 km/h
610 31-03-2010 03:00:06 5.7 C 4.7 g/m*3 5.7 C 0 km/h
611 31-03-2010 03:12:06 5.8 C 4.73 g/m*3 5.8 C 0 km/h
612 31-03-2010 03:24:06 5.8 C 4.8 g/m*3 5.8 C 0 km/h
613 31-03-2010 03:36:06 5.8 C 4.8 g/m*3 5.8 C 0 km/h
614 31-03-2010 03:48:06 5.5 C 4.78 g/m*3 5.5 C 0 km/h
615 31-03-2010 04:00:06 5.5 C 4.85 g/m*3 5.5 C 0 km/h
616 31-03-2010 04:12:06 5.3 C 4.85 g/m*3 5.3 C 0 km/h
617 31-03-2010 04:24:06 5.3 C 4.99 g/m*3 5.3 C 0 km/h
618 31-03-2010 04:36:06 5.6 C 5.16 g/m*3 5.6 C 0 km/h
619 31-03-2010 04:48:06 5.8 C 5.16 g/m*3 5.8 C 0 km/h
620 31-03-2010 05:00:06 5.7 C 5.12 g/m*3 5.7 C 0 km/h
621 31-03-2010 05:12:06 6.1 C 5.11 g/m*3 6.1 C 0 km/h
622 31-03-2010 05:24:06 6.5 C 4.95 g/m*3 6.5 C 0 km/h
623 31-03-2010 05:36:06 6.6 C 4.91 g/m*3 6.6 C 0 km/h
624 31-03-2010 05:48:06 7.1 C 4.76 g/m*3 7.1 C 0 km/h
625 31-03-2010 06:00:06 7 C 4.65 g/m*3 7 C 0 km/h
Sensor: Nr:Datum:Temp:Abs-Feuchte:Windchill:Wind:
Aussen-T/F 626 31-03-2010 06:12:06 7.1 C 4.68 g/m*3 7.1 C 0 km/h
627 31-03-2010 06:24:06 7.3 C 4.58 g/m*3 7.3 C 0 km/h
628 31-03-2010 06:36:06 7.3 C 4.5 g/m*3 7.3 C 0 km/h
629 31-03-2010 06:48:06 7.3 C 4.5 g/m*3 7.3 C 0 km/h
630 31-03-2010 07:00:07 7.3 C 4.42 g/m*3 7.3 C 0 km/h
631 31-03-2010 07:12:04 7.3 C 4.42 g/m*3 7.3 C 0 km/h
632 31-03-2010 07:24:03 7.4 C 4.21 g/m*3 7.4 C 0 km/h
633 31-03-2010 07:36:04 7.4 C 4.06 g/m*3 7.4 C 0 km/h
634 31-03-2010 07:48:02 7.5 C 4.08 g/m*3 7.5 C 0 km/h
635 31-03-2010 08:00:02 7.4 C 4.14 g/m*3 7.4 C 0 km/h
636 31-03-2010 08:12:02 7.5 C 4.24 g/m*3 7.5 C 0 km/h
637 31-03-2010 08:24:01 7.5 C 4.24 g/m*3 7.5 C 0 km/h
638 31-03-2010 08:36:02 7.5 C 4.24 g/m*3 7.5 C 0 km/h
639 31-03-2010 08:48:02 7.4 C 4.14 g/m*3 7.4 C 0 km/h
640 31-03-2010 09:00:02 7.6 C 4.27 g/m*3 7.6 C 0 km/h
641 31-03-2010 09:12:02 7.8 C 4.41 g/m*3 7.8 C 0 km/h
642 31-03-2010 09:24:02 7.2 C 4.71 g/m*3 7.2 C 0 km/h
643 31-03-2010 09:36:02 7.4 C 4.85 g/m*3 7.4 C 0 km/h
644 31-03-2010 09:48:01 7.8 C 4.9 g/m*3 7.8 C 0 km/h
645 31-03-2010 10:00:01 6.8 C 5.05 g/m*3 6.8 C 0 km/h
646 31-03-2010 10:12:02 6 C 5.3 g/m*3 6 C 0 km/h
647 31-03-2010 10:24:02 6.5 C 5.55 g/m*3 6.5 C 0 km/h
648 31-03-2010 10:36:01 7.4 C 5.33 g/m*3 7.4 C 0 km/h
649 31-03-2010 10:48:02 8.5 C 4.7 g/m*3 8.5 C 0 km/h
650 31-03-2010 11:00:02 9.4 C 4.16 g/m*3 9.4 C 0 km/h
Sensor: Nr:Datum:Temp:Abs-Feuchte:Windchill:Wind:
Aussen-T/F 651 31-03-2010 11:12:01 10.1 C 4.26 g/m*3 10.1 C 0 km/h
652 31-03-2010 11:24:02 10.1 C 3.78 g/m*3 10.1 C 0 km/h
653 31-03-2010 11:36:01 10.2 C 3.81 g/m*3 10.2 C 0 km/h
654 31-03-2010 11:48:02 10.4 C 3.76 g/m*3 10.4 C 0 km/h
655 31-03-2010 12:00:02 10.8 C 3.85 g/m*3 10.8 C 0 km/h
656 31-03-2010 12:12:02 10.7 C 3.54 g/m*3 10.7 C 0 km/h
657 31-03-2010 12:24:02 10.2 C 3.52 g/m*3 10.2 C 0 km/h
658 31-03-2010 12:36:02 10.3 C 3.93 g/m*3 10.3 C 0 km/h
659 31-03-2010 12:48:02 10.6 C 3.71 g/m*3 10.6 C 0 km/h
660 31-03-2010 13:00:03 10.9 C 3.48 g/m*3 10.9 C 0 km/h
661 31-03-2010 13:12:01 11.6 C 3.22 g/m*3 11.6 C 0 km/h
662 31-03-2010 13:24:01 11.4 C 3.08 g/m*3 11.4 C 0 km/h
663 31-03-2010 13:36:02 11.8 C 3.16 g/m*3 11.8 C 0 km/h
664 31-03-2010 13:48:02 11.8 C 3.16 g/m*3 11.8 C 0 km/h
665 31-03-2010 14:00:02 11.6 C 3.22 g/m*3 11.6 C 0 km/h
666 31-03-2010 14:12:02 11.5 C 3.1 g/m*3 11.5 C 0 km/h
667 31-03-2010 14:24:02 11.8 C 3.05 g/m*3 11.8 C 0 km/h
668 31-03-2010 14:36:02 12.3 C 3.04 g/m*3 12.3 C 0 km/h
669 31-03-2010 14:48:02 11.9 C 3.18 g/m*3 11.9 C 0 km/h
670 31-03-2010 15:00:02 11.2 C 3.45 g/m*3 11.2 C 0 km/h
671 31-03-2010 15:12:02 11.9 C 4.13 g/m*3 11.9 C 0 km/h
672 31-03-2010 15:24:02 11.7 C 3.56 g/m*3 11.7 C 0 km/h
673 31-03-2010 15:36:02 8.6 C 5.41 g/m*3 8.6 C 0 km/h
674 31-03-2010 15:48:01 9.3 C 6.02 g/m*3 9.3 C 0 km/h
675 31-03-2010 16:00:01 11.2 C 5.17 g/m*3 11.2 C 0 km/h
Sensor: Nr:Datum:Temp:Abs-Feuchte:Windchill:Wind:
Aussen-T/F 676 31-03-2010 16:12:01 12.2 C 4.21 g/m*3 12.2 C 0 km/h
677 31-03-2010 16:24:01 12.7 C 4.01 g/m*3 12.7 C 0 km/h
678 31-03-2010 16:36:01 13.6 C 3.77 g/m*3 13.6 C 0 km/h
679 31-03-2010 16:48:01 13.4 C 3.25 g/m*3 13.4 C 0 km/h
680 31-03-2010 17:00:01 13.4 C 3.14 g/m*3 13.4 C 0 km/h
681 31-03-2010 17:12:01 13 C 2.84 g/m*3 13 C 0 km/h
682 31-03-2010 17:24:02 12.5 C 2.86 g/m*3 12.5 C 0 km/h
683 31-03-2010 17:36:01 13.3 C 2.66 g/m*3 13.3 C 0 km/h
684 31-03-2010 17:48:02 12.5 C 3.3 g/m*3 12.5 C 0 km/h
685 31-03-2010 18:00:02 11.4 C 4 g/m*3 11.4 C 0 km/h
686 31-03-2010 18:12:02 11.9 C 3.71 g/m*3 11.9 C 0 km/h
687 31-03-2010 18:24:02 12.2 C 3.45 g/m*3 12.2 C 0 km/h
688 31-03-2010 18:36:02 10.3 C 3.35 g/m*3 10.3 C 0 km/h
689 31-03-2010 18:48:02 9.3 C 4.58 g/m*3 9.3 C 0 km/h
690 31-03-2010 19:00:02 9.6 C 4.12 g/m*3 9.6 C 0 km/h
691 31-03-2010 19:12:02 8.4 C 4.58 g/m*3 8.4 C 0 km/h
692 31-03-2010 19:24:02 8.1 C 4.74 g/m*3 8.1 C 0 km/h
693 31-03-2010 19:36:01 8.2 C 4.44 g/m*3 8.2 C 0 km/h
694 31-03-2010 19:48:02 7.9 C 4.19 g/m*3 7.9 C 0 km/h
695 31-03-2010 20:00:02 7.5 C 4.08 g/m*3 7.5 C 0 km/h
696 31-03-2010 20:12:01 7.3 C 4.03 g/m*3 7.3 C 0 km/h
697 31-03-2010 20:24:02 7.1 C 3.98 g/m*3 7.1 C 0 km/h
698 31-03-2010 20:36:02 7 C 3.95 g/m*3 7 C 0 km/h
699 31-03-2010 20:48:02 6.9 C 4.16 g/m*3 6.9 C 0 km/h
700 31-03-2010 21:00:03 7 C 4.26 g/m*3 7 C 0 km/h
Sensor: Nr:Datum:Temp:Abs-Feuchte:Windchill:Wind:
Aussen-T/F 701 31-03-2010 21:12:02 6.2 C 4.85 g/m*3 6.2 C 0 km/h
702 31-03-2010 21:24:02 5.7 C 4.98 g/m*3 5.7 C 0 km/h
703 31-03-2010 21:36:02 5.6 C 4.95 g/m*3 5.6 C 0 km/h
704 31-03-2010 21:48:02 5.5 C 4.92 g/m*3 5.5 C 0 km/h
705 31-03-2010 22:00:02 5.6 C 4.74 g/m*3 5.6 C 0 km/h
706 31-03-2010 22:12:01 5.3 C 4.78 g/m*3 5.3 C 0 km/h
707 31-03-2010 22:25:03 5.3 C 4.71 g/m*3 5.3 C 0 km/h
708 31-03-2010 22:37:03 5.2 C 4.68 g/m*3 5.2 C 0 km/h
709 31-03-2010 22:49:03 5.1 C 4.65 g/m*3 5.1 C 0 km/h
710 31-03-2010 23:01:03 5.1 C 4.65 g/m*3 5.1 C 0 km/h
711 31-03-2010 23:13:03 5.2 C 4.54 g/m*3 5.2 C 0 km/h
712 31-03-2010 23:25:03 5.1 C 4.51 g/m*3 5.1 C 0 km/h
713 31-03-2010 23:37:03 5.5 C 4.28 g/m*3 5.5 C 0 km/h
714 31-03-2010 23:49:03 5.5 C 4.21 g/m*3 5.5 C 0 km/h
715 01-04-2010 00:01:03 5.6 C 4.1 g/m*3 5.6 C 0 km/h
716 01-04-2010 00:13:03 5.6 C 3.96 g/m*3 5.6 C 0 km/h
717 01-04-2010 00:25:03 5.7 C 3.77 g/m*3 5.7 C 0 km/h
718 01-04-2010 00:37:03 5.6 C 3.75 g/m*3 5.6 C 0 km/h
719 01-04-2010 00:49:03 5.5 C 3.65 g/m*3 5.5 C 0 km/h
720 01-04-2010 01:01:03 5.3 C 3.6 g/m*3 5.3 C 0 km/h
721 01-04-2010 01:13:03 5.3 C 3.6 g/m*3 5.3 C 0 km/h
722 01-04-2010 01:25:03 5.2 C 3.51 g/m*3 5.2 C 0 km/h
723 01-04-2010 01:37:04 5 C 3.53 g/m*3 5 C 0 km/h
724 01-04-2010 01:49:04 4.9 C 3.58 g/m*3 4.9 C 0 km/h
725 01-04-2010 02:01:04 4.8 C 3.62 g/m*3 4.8 C 0 km/h
Sensor: Nr:Datum:Temp:Abs-Feuchte:Windchill:Wind:
Aussen-T/F 726 01-04-2010 02:13:04 5 C 3.53 g/m*3 5 C 0 km/h
727 01-04-2010 02:25:04 5.1 C 3.49 g/m*3 5.1 C 0 km/h
728 01-04-2010 02:37:04 5 C 3.47 g/m*3 5 C 0 km/h
729 01-04-2010 02:49:04 4.6 C 3.44 g/m*3 4.6 C 0 km/h
730 01-04-2010 03:01:04 4.4 C 3.46 g/m*3 4.4 C 0 km/h
731 01-04-2010 03:13:04 4.7 C 3.46 g/m*3 4.7 C 0 km/h
732 01-04-2010 03:25:04 4.7 C 3.46 g/m*3 4.7 C 0 km/h
733 01-04-2010 03:37:04 4.4 C 3.33 g/m*3 4.4 C 0 km/h
734 01-04-2010 03:49:04 4.2 C 3.35 g/m*3 4.2 C 0 km/h
735 01-04-2010 04:01:04 4.2 C 3.41 g/m*3 4.2 C 0 km/h
736 01-04-2010 04:13:04 3.8 C 3.45 g/m*3 3.8 C 0 km/h
737 01-04-2010 04:25:04 3.9 C 3.54 g/m*3 3.9 C 0 km/h
738 01-04-2010 04:37:04 3.8 C 3.45 g/m*3 3.8 C 0 km/h
739 01-04-2010 04:49:04 3.8 C 3.45 g/m*3 3.8 C 0 km/h
740 01-04-2010 05:01:04 3.5 C 3.44 g/m*3 3.5 C 0 km/h
741 01-04-2010 05:13:04 3.6 C 3.53 g/m*3 3.6 C 0 km/h
742 01-04-2010 05:25:04 3.6 C 3.53 g/m*3 3.6 C 0 km/h
743 01-04-2010 05:37:04 3.5 C 3.5 g/m*3 3.5 C 0 km/h
744 01-04-2010 05:49:05 3.5 C 3.57 g/m*3 3.5 C 0 km/h
745 01-04-2010 06:01:05 3.6 C 3.53 g/m*3 3.6 C 0 km/h
746 01-04-2010 06:13:05 3.5 C 3.5 g/m*3 3.5 C 0 km/h
747 01-04-2010 06:25:05 3.5 C 3.5 g/m*3 3.5 C 0 km/h
748 01-04-2010 06:37:05 3.5 C 3.5 g/m*3 3.5 C 0 km/h
749 01-04-2010 06:49:05 3.2 C 3.56 g/m*3 3.2 C 0 km/h
750 01-04-2010 07:01:03 3.5 C 3.69 g/m*3 3.5 C 0 km/h
Sensor: Nr:Datum:Temp:Abs-Feuchte:Windchill:Wind:
Aussen-T/F 751 01-04-2010 07:13:03 3.5 C 3.69 g/m*3 3.5 C 0 km/h
752 01-04-2010 07:25:03 3.3 C 3.64 g/m*3 3.3 C 0 km/h
753 01-04-2010 07:37:02 3.3 C 3.64 g/m*3 3.3 C 0 km/h
754 01-04-2010 07:49:02 3.4 C 3.66 g/m*3 3.4 C 0 km/h
755 01-04-2010 08:01:01 3.4 C 3.66 g/m*3 3.4 C 0 km/h
756 01-04-2010 08:13:01 3.5 C 3.69 g/m*3 3.5 C 0 km/h
757 01-04-2010 08:25:02 3.5 C 3.63 g/m*3 3.5 C 0 km/h
758 01-04-2010 08:37:01 3.5 C 3.69 g/m*3 3.5 C 0 km/h
759 01-04-2010 08:49:02 3.8 C 3.7 g/m*3 3.8 C 0 km/h
760 01-04-2010 09:01:02 3.9 C 3.73 g/m*3 3.9 C 0 km/h
761 01-04-2010 09:13:02 4.2 C 3.67 g/m*3 4.2 C 0 km/h
762 01-04-2010 09:25:02 4.5 C 3.68 g/m*3 4.5 C 0 km/h
763 01-04-2010 09:37:03 5.2 C 3.72 g/m*3 5.2 C 0 km/h
764 01-04-2010 09:49:02 5.2 C 3.65 g/m*3 5.2 C 0 km/h
765 01-04-2010 10:01:02 5.1 C 3.69 g/m*3 5.1 C 0 km/h
766 01-04-2010 10:13:02 5.2 C 3.72 g/m*3 5.2 C 0 km/h
767 01-04-2010 10:25:02 5.3 C 3.67 g/m*3 5.3 C 0 km/h
768 01-04-2010 10:37:02 5.6 C 3.68 g/m*3 5.6 C 0 km/h
769 01-04-2010 10:49:02 6.1 C 3.65 g/m*3 6.1 C 0 km/h
770 01-04-2010 11:01:02 6.7 C 3.57 g/m*3 6.7 C 0 km/h
771 01-04-2010 11:13:02 6.9 C 3.46 g/m*3 6.9 C 0 km/h
772 01-04-2010 11:25:02 6.9 C 3.31 g/m*3 6.9 C 0 km/h
773 01-04-2010 11:37:02 7.2 C 3.45 g/m*3 7.2 C 0 km/h
774 01-04-2010 11:49:02 7.5 C 3.52 g/m*3 7.5 C 0 km/h
775 01-04-2010 12:01:02 8 C 3.39 g/m*3 8 C 0 km/h
Sensor: Nr:Datum:Temp:Abs-Feuchte:Windchill:Wind:
Aussen-T/F 776 01-04-2010 12:13:03 7.9 C 3.29 g/m*3 7.9 C 0 km/h
777 01-04-2010 12:25:02 7.7 C 3.32 g/m*3 7.7 C 0 km/h
778 01-04-2010 12:37:02 8 C 3.22 g/m*3 8 C 0 km/h
779 01-04-2010 12:49:02 9.1 C 3.28 g/m*3 9.1 C 0 km/h
780 01-04-2010 13:01:02 8.7 C 2.94 g/m*3 8.7 C 0 km/h
781 01-04-2010 13:13:02 8.5 C 2.73 g/m*3 8.5 C 0 km/h
782 01-04-2010 13:25:03 8.8 C 2.96 g/m*3 8.8 C 0 km/h
783 01-04-2010 13:37:02 9.3 C 2.79 g/m*3 9.3 C 0 km/h
784 01-04-2010 13:49:02 9 C 2.73 g/m*3 9 C 0 km/h
785 01-04-2010 14:01:02 8.8 C 2.7 g/m*3 8.8 C 0 km/h
786 01-04-2010 14:13:02 8.9 C 2.8 g/m*3 8.9 C 0 km/h
787 01-04-2010 14:25:02 10.2 C 2.66 g/m*3 10.2 C 0 km/h
788 01-04-2010 14:37:02 11 C 2.6 g/m*3 11 C 0 km/h
789 01-04-2010 14:49:02 8.2 C 3.43 g/m*3 8.2 C 0 km/h
790 01-04-2010 15:01:01 8.7 C 3.81 g/m*3 8.7 C 0 km/h
791 01-04-2010 15:13:01 9.7 C 3.69 g/m*3 9.7 C 0 km/h
792 01-04-2010 15:25:02 10.7 C 3.54 g/m*3 10.7 C 0 km/h
793 01-04-2010 15:37:01 10.6 C 3.32 g/m*3 10.6 C 0 km/h
794 01-04-2010 15:49:02 10.5 C 2.91 g/m*3 10.5 C 0 km/h
795 01-04-2010 16:01:01 10.4 C 2.89 g/m*3 10.4 C 0 km/h
796 01-04-2010 16:13:01 10.8 C 2.97 g/m*3 10.8 C 0 km/h
797 01-04-2010 16:25:01 10.4 C 2.89 g/m*3 10.4 C 0 km/h
798 01-04-2010 16:37:02 10.4 C 2.99 g/m*3 10.4 C 0 km/h
799 01-04-2010 16:49:02 11 C 3.1 g/m*3 11 C 0 km/h
800 01-04-2010 17:01:02 11 C 2.8 g/m*3 11 C 0 km/h
Sensor: Nr:Datum:Temp:Abs-Feuchte:Windchill:Wind:
Aussen-T/F 801 01-04-2010 17:13:02 10.7 C 2.75 g/m*3 10.7 C 0 km/h
802 01-04-2010 17:25:02 9.9 C 2.61 g/m*3 9.9 C 0 km/h
803 01-04-2010 17:37:02 9.2 C 3.04 g/m*3 9.2 C 0 km/h
804 01-04-2010 17:49:02 8.3 C 3.54 g/m*3 8.3 C 0 km/h
805 01-04-2010 18:01:02 8.1 C 3.41 g/m*3 8.1 C 0 km/h
806 01-04-2010 18:13:02 9.8 C 3.25 g/m*3 9.8 C 0 km/h
807 01-04-2010 18:25:02 8.4 C 3.31 g/m*3 8.4 C 0 km/h
808 01-04-2010 18:37:02 7.8 C 3.43 g/m*3 7.8 C 0 km/h
809 01-04-2010 18:49:02 5.4 C 3.28 g/m*3 5.4 C 0 km/h
810 01-04-2010 19:01:02 5.8 C 5.52 g/m*3 5.8 C 0 km/h
811 01-04-2010 19:13:03 6.4 C 5.51 g/m*3 6.4 C 0 km/h
812 01-04-2010 19:25:02 6.7 C 5.24 g/m*3 6.7 C 0 km/h
813 01-04-2010 19:37:02 6.5 C 4.8 g/m*3 6.5 C 0 km/h
814 01-04-2010 19:49:01 5.8 C 4.58 g/m*3 5.8 C 0 km/h
815 01-04-2010 20:01:02 5.3 C 4.44 g/m*3 5.3 C 0 km/h
816 01-04-2010 20:13:02 5 C 4.35 g/m*3 5 C 0 km/h
817 01-04-2010 20:25:01 4.7 C 4.53 g/m*3 4.7 C 0 km/h
818 01-04-2010 20:37:01 4.5 C 4.54 g/m*3 4.5 C 0 km/h
819 01-04-2010 20:49:01 4.2 C 4.51 g/m*3 4.2 C 0 km/h
820 01-04-2010 21:01:02 4.1 C 4.48 g/m*3 4.1 C 0 km/h
821 01-04-2010 21:13:02 3.9 C 4.48 g/m*3 3.9 C 0 km/h
822 01-04-2010 21:25:01 3.7 C 4.42 g/m*3 3.7 C 0 km/h
823 01-04-2010 21:37:01 3.6 C 4.46 g/m*3 3.6 C 0 km/h
824 01-04-2010 21:49:01 3.5 C 4.43 g/m*3 3.5 C 0 km/h
825 01-04-2010 22:01:02 3.2 C 4.46 g/m*3 3.2 C 0 km/h
Sensor: Nr:Datum:Temp:Abs-Feuchte:Windchill:Wind:
Aussen-T/F 826 01-04-2010 22:13:02 3.2 C 4.46 g/m*3 3.2 C 0 km/h
827 01-04-2010 22:25:01 3.2 C 4.46 g/m*3 3.2 C 0 km/h
828 01-04-2010 22:37:02 3.1 C 4.43 g/m*3 3.1 C 0 km/h
829 01-04-2010 22:50:02 3 C 4.46 g/m*3 3 C 0 km/h
830 01-04-2010 23:02:02 2.8 C 4.46 g/m*3 2.8 C 0 km/h
831 01-04-2010 23:14:02 2.6 C 4.46 g/m*3 2.6 C 0 km/h
832 01-04-2010 23:26:02 2.5 C 4.48 g/m*3 2.5 C 0 km/h
833 01-04-2010 23:38:02 2.4 C 4.45 g/m*3 2.4 C 0 km/h
834 01-04-2010 23:50:02 2.3 C 4.42 g/m*3 2.3 C 0 km/h

Legende:
   Min
   Max


Maximal/Minimal-Werte vom 26.03.2010 - 01.04.2010

Sensor Min Max Avg
Temp
(Aussen-T/F)
2.3 °C
01-04-2010  23:50:02
18.9 °C
30-03-2010  14:23:02
9.7 °C
Abs-Feuchte
(Aussen-T/F)
2.6 g/m*3
01-04-2010  14:37:02
10.14 g/m*3
29-03-2010  17:46:02
5.83 g/m*3
Windchill
(Aussen-T/F)
2.3 C
01-04-2010  23:50:02
18.9 C
30-03-2010  14:23:02
9.69 C

Die Daten stammen von einer Davis Vantage Pro 2 Wetter-Station und werden unter Linux mit der Software wview2wettercgi und aufbereitet. Alle Angaben erfolgen ohne Gewähr für ihre Vollständigkeit oder Richtigkeit.
Kontakt: Rainer Krienke krienke@uni-koblenz.de . Meine Webseiten an der Uni Koblenz oder privat.
Version: $Revision: 0.78 $